Time;durP1;ratioP1;P1;durP2;ratioP2;P2;SDS_P1;SDS_P2;PMS_P1;PMS_P2;Temp;Humidity;BMP_temperature;BMP_pressure;BME280_temperature;BME280_humidity;BME280_pressure;Samples;Min_cycle;Max_cycle;Signal;HPM_P1;HPM_P2
2023/12/16 00:02:03;;;;;;;14.83;7.77;;;6.80;99.90;;;;;;5055755;28;20182;-69
2023/12/16 00:04:29;;;;;;;15.43;8.07;;;6.80;99.90;;;;;;5055488;28;20224;-70
2023/12/16 00:06:55;;;;;;;21.60;8.83;;;6.80;99.90;;;;;;5055490;28;20179;-69
2023/12/16 00:09:20;;;;;;;13.03;7.30;;;6.80;99.90;;;;;;5055496;28;20195;-69
2023/12/16 00:11:46;;;;;;;18.50;7.97;;;6.80;99.90;;;;;;5054103;28;20209;-69
2023/12/16 00:14:12;;;;;;;17.77;7.57;;;6.80;99.90;;;;;;5055203;28;20640;-69
2023/12/16 00:16:44;;;;;;;15.33;7.80;;;6.70;99.90;;;;;;5054092;28;20597;-69
2023/12/16 00:19:10;;;;;;;17.70;8.17;;;6.70;99.90;;;;;;5055420;28;20194;-69
2023/12/16 00:21:37;;;;;;;18.87;8.03;;;6.70;99.90;;;;;;5055681;28;20575;-69
2023/12/16 00:24:03;;;;;;;15.00;8.50;;;6.70;99.90;;;;;;5053871;28;20227;-69
2023/12/16 00:26:29;;;;;;;15.30;8.37;;;6.80;99.90;;;;;;5055545;28;20249;-69
2023/12/16 00:28:54;;;;;;;11.33;6.57;;;6.80;99.90;;;;;;5054999;28;20328;-69
2023/12/16 00:31:20;;;;;;;16.63;8.13;;;6.80;99.90;;;;;;5055039;28;20174;-69
2023/12/16 00:33:46;;;;;;;17.27;8.10;;;6.80;99.90;;;;;;5053800;28;20189;-69
2023/12/16 00:36:12;;;;;;;19.53;7.77;;;6.70;99.90;;;;;;5055232;28;20248;-69
2023/12/16 00:38:38;;;;;;;14.20;7.60;;;6.70;99.90;;;;;;5053914;28;20226;-69
2023/12/16 00:41:03;;;;;;;12.03;7.57;;;6.70;99.90;;;;;;5055124;28;20265;-69
2023/12/16 00:43:29;;;;;;;12.63;7.17;;;6.80;99.90;;;;;;5055355;28;20248;-69
2023/12/16 00:45:55;;;;;;;20.70;7.63;;;6.80;99.90;;;;;;5055767;28;20171;-69
2023/12/16 00:48:21;;;;;;;15.33;7.33;;;6.80;95.10;;;;;;5055001;28;20214;-69
2023/12/16 00:50:47;;;;;;;16.83;7.73;;;6.80;78.10;;;;;;5055041;28;20182;-69
2023/12/16 00:53:13;;;;;;;13.63;7.40;;;6.90;93.60;;;;;;5054820;28;20260;-69
2023/12/16 00:55:41;;;;;;;14.90;8.13;;;6.90;83.80;;;;;;5053933;28;20175;-69
2023/12/16 00:58:08;;;;;;;15.00;7.70;;;6.90;91.30;;;;;;5052835;28;20269;-69
2023/12/16 01:00:34;;;;;;;16.33;8.07;;;6.90;98.40;;;;;;5054686;28;20171;-69
2023/12/16 01:03:00;;;;;;;18.77;7.53;;;6.90;63.70;;;;;;5054739;28;20170;-69
2023/12/16 01:05:26;;;;;;;17.90;7.60;;;6.90;96.30;;;;;;5054869;28;20177;-69
2023/12/16 01:07:52;;;;;;;13.53;7.80;;;6.90;94.00;;;;;;5054710;28;20170;-69
2023/12/16 01:10:18;;;;;;;21.77;8.50;;;6.80;92.20;;;;;;5054308;28;20198;-69
2023/12/16 01:12:45;;;;;;;18.30;7.83;;;6.80;92.20;;;;;;5053873;28;20671;-69
2023/12/16 01:15:11;;;;;;;17.63;8.37;;;6.90;99.90;;;;;;5054337;28;20193;-69
2023/12/16 01:17:37;;;;;;;16.67;8.57;;;6.80;94.10;;;;;;5053012;28;20178;-69
2023/12/16 01:20:04;;;;;;;20.27;9.23;;;6.90;99.90;;;;;;5054122;28;20675;-69
2023/12/16 01:22:29;;;;;;;12.70;7.97;;;6.80;99.90;;;;;;5054241;28;20241;-69
2023/12/16 01:24:56;;;;;;;13.17;8.67;;;6.80;99.90;;;;;;5054115;28;20261;-69
2023/12/16 01:27:21;;;;;;;17.13;8.50;;;6.90;99.90;;;;;;5054119;28;20185;-69
2023/12/16 01:29:47;;;;;;;19.23;9.80;;;6.90;99.90;;;;;;5052340;28;20202;-68
2023/12/16 01:32:13;;;;;;;17.97;9.57;;;6.90;99.90;;;;;;5053771;28;20202;-68
2023/12/16 01:34:39;;;;;;;18.43;8.90;;;6.90;99.90;;;;;;5053883;28;20541;-69
2023/12/16 01:37:05;;;;;;;17.97;9.43;;;6.80;99.90;;;;;;5054471;28;20171;-69
2023/12/16 01:39:31;;;;;;;17.33;9.67;;;6.80;99.90;;;;;;5052520;28;20252;-69
2023/12/16 01:41:57;;;;;;;20.67;9.77;;;6.80;99.90;;;;;;5054147;28;20171;-69
2023/12/16 01:44:23;;;;;;;25.00;10.77;;;6.80;99.90;;;;;;5053615;28;20186;-69
2023/12/16 01:46:50;;;;;;;20.00;10.33;;;6.80;99.90;;;;;;5053840;28;20166;-69
2023/12/16 01:49:16;;;;;;;20.03;10.67;;;6.80;99.90;;;;;;5052584;28;20300;-68
2023/12/16 01:51:43;;;;;;;21.73;10.37;;;6.80;99.90;;;;;;5053976;28;20663;-70
2023/12/16 01:54:11;;;;;;;24.87;10.73;;;6.80;99.90;;;;;;5054170;28;20165;-69
2023/12/16 01:56:38;;;;;;;18.63;10.60;;;6.80;99.90;;;;;;5053745;28;20254;-69
2023/12/16 01:59:05;;;;;;;19.60;10.13;;;6.90;99.90;;;;;;5053309;28;20197;-69
2023/12/16 02:01:31;;;;;;;20.30;10.17;;;6.90;99.90;;;;;;5053908;28;20202;-69
2023/12/16 02:03:57;;;;;;;15.60;10.30;;;6.90;99.90;;;;;;5053488;28;20182;-69
2023/12/16 02:06:24;;;;;;;18.10;9.30;;;6.90;99.90;;;;;;5052607;28;20174;-69
2023/12/16 02:08:51;;;;;;;15.53;9.53;;;6.90;99.90;;;;;;5053478;28;20197;-69
2023/12/16 02:11:16;;;;;;;19.10;9.57;;;6.90;99.90;;;;;;5053268;28;20175;-69
2023/12/16 02:13:42;;;;;;;19.30;10.13;;;6.80;99.90;;;;;;5053348;28;20181;-69
2023/12/16 02:16:09;;;;;;;21.97;10.50;;;6.80;99.90;;;;;;5053259;28;20185;-69
2023/12/16 02:18:36;;;;;;;20.33;10.03;;;6.90;99.90;;;;;;5053482;28;20183;-68
2023/12/16 02:21:03;;;;;;;21.50;9.37;;;6.90;99.90;;;;;;5053215;28;20658;-69
2023/12/16 02:23:28;;;;;;;18.53;9.73;;;6.90;99.90;;;;;;5053552;28;20544;-68
2023/12/16 02:25:54;;;;;;;15.37;9.13;;;6.90;99.90;;;;;;5053515;28;20203;-69
2023/12/16 02:28:20;;;;;;;16.90;9.37;;;6.80;99.90;;;;;;5053173;28;20201;-69
2023/12/16 02:30:46;;;;;;;20.10;9.57;;;6.80;99.90;;;;;;5053103;28;20643;-69
2023/12/16 02:33:11;;;;;;;19.53;9.43;;;6.80;99.90;;;;;;5053032;28;20198;-69
2023/12/16 02:35:37;;;;;;;13.97;9.10;;;6.80;99.90;;;;;;5053181;28;20228;-69
2023/12/16 02:38:03;;;;;;;13.23;9.07;;;6.80;99.90;;;;;;5051674;28;20208;-69
2023/12/16 02:40:29;;;;;;;25.00;9.60;;;6.90;99.90;;;;;;5053093;28;20249;-69
2023/12/16 02:42:55;;;;;;;24.30;10.07;;;6.90;99.90;;;;;;5053030;28;20178;-69
2023/12/16 02:45:20;;;;;;;18.47;9.43;;;6.80;99.90;;;;;;5052909;28;20236;-68
2023/12/16 02:47:46;;;;;;;14.47;8.57;;;6.80;99.90;;;;;;5053157;28;20655;-68
2023/12/16 02:50:12;;;;;;;23.37;9.97;;;6.80;99.90;;;;;;5053935;28;20304;-69
2023/12/16 02:52:38;;;;;;;21.43;9.43;;;6.80;99.90;;;;;;5053806;28;20217;-68
2023/12/16 02:55:04;;;;;;;16.83;9.40;;;6.80;99.90;;;;;;5052336;28;20260;-69
2023/12/16 02:57:30;;;;;;;17.77;9.73;;;6.70;99.90;;;;;;5052861;28;20204;-69
2023/12/16 02:59:55;;;;;;;20.30;9.47;;;6.70;99.90;;;;;;5052506;28;20195;-68
2023/12/16 03:02:21;;;;;;;18.67;8.90;;;6.70;99.90;;;;;;5052796;28;20182;-69
2023/12/16 03:04:47;;;;;;;18.63;9.37;;;6.70;99.90;;;;;;5052710;28;20182;-69
2023/12/16 03:07:13;;;;;;;22.10;9.70;;;6.70;99.90;;;;;;5053038;28;20175;-68
2023/12/16 03:09:38;;;;;;;14.90;8.77;;;6.70;99.90;;;;;;5052700;28;20276;-69
2023/12/16 03:12:04;;;;;;;18.93;8.67;;;6.70;99.90;;;;;;5052591;28;20204;-69
2023/12/16 03:14:30;;;;;;;17.53;8.60;;;6.70;99.90;;;;;;5052525;28;20317;-68
2023/12/16 03:16:57;;;;;;;19.23;8.57;;;6.70;99.90;;;;;;5053320;28;20591;-69
2023/12/16 03:19:23;;;;;;;17.50;9.33;;;6.70;99.90;;;;;;5057550;28;20183;-69
2023/12/16 03:21:48;;;;;;;16.17;8.70;;;6.70;99.90;;;;;;5056961;28;20674;-68
2023/12/16 03:24:14;;;;;;;15.73;8.70;;;6.70;99.90;;;;;;5056845;28;20184;-69
2023/12/16 03:26:40;;;;;;;22.60;9.40;;;6.70;99.90;;;;;;5056774;28;20640;-69
2023/12/16 03:29:06;;;;;;;20.00;8.40;;;6.70;99.90;;;;;;5054640;28;20557;-68
2023/12/16 03:31:32;;;;;;;19.63;8.90;;;6.80;99.90;;;;;;5056133;28;20230;-69
2023/12/16 03:33:58;;;;;;;17.20;9.13;;;6.80;99.90;;;;;;5056495;28;20665;-69
2023/12/16 03:36:24;;;;;;;18.03;8.80;;;6.80;95.00;;;;;;5056261;28;20257;-69
2023/12/16 03:38:52;;;;;;;13.70;7.90;;;6.80;99.90;;;;;;5056382;28;20218;-69
2023/12/16 03:41:18;;;;;;;13.73;8.00;;;6.80;93.80;;;;;;5055960;28;20636;-69
2023/12/16 03:43:44;;;;;;;21.23;9.70;;;6.80;99.90;;;;;;5055656;28;20171;-68
2023/12/16 03:46:09;;;;;;;12.67;8.00;;;6.70;99.90;;;;;;5055902;28;20657;-69
2023/12/16 03:48:35;;;;;;;19.13;8.63;;;6.70;99.90;;;;;;5055639;28;20209;-68
2023/12/16 03:51:01;;;;;;;19.07;8.30;;;6.70;99.90;;;;;;5056166;28;20675;-68
2023/12/16 03:53:27;;;;;;;18.33;8.90;;;6.70;99.90;;;;;;5055824;28;20202;-69
2023/12/16 03:55:53;;;;;;;15.93;7.90;;;6.70;99.90;;;;;;5055946;28;20663;-69
2023/12/16 03:58:19;;;;;;;13.60;8.07;;;6.70;99.90;;;;;;5055485;28;20220;-69
2023/12/16 04:00:45;;;;;;;13.10;8.03;;;6.70;99.90;;;;;;5056066;28;20194;-69
2023/12/16 04:03:10;;;;;;;15.33;9.07;;;6.70;99.90;;;;;;5055665;28;20171;-69
2023/12/16 04:05:36;;;;;;;19.60;8.53;;;6.70;99.90;;;;;;5054294;28;20185;-69
2023/12/16 04:08:03;;;;;;;17.53;8.80;;;6.70;99.90;;;;;;5055464;28;20166;-68
2023/12/16 04:10:29;;;;;;;19.60;8.07;;;6.70;92.50;;;;;;5054256;28;20188;-68
2023/12/16 04:12:55;;;;;;;22.47;8.90;;;6.70;62.80;;;;;;5055412;28;20194;-68
2023/12/16 04:15:21;;;;;;;19.17;8.60;;;6.70;73.90;;;;;;5054102;28;20240;-69
2023/12/16 04:17:46;;;;;;;16.53;7.43;;;6.70;45.70;;;;;;5055316;28;20233;-68
2023/12/16 04:20:12;;;;;;;17.43;7.77;;;6.70;54.00;;;;;;5055199;28;20217;-69
2023/12/16 04:22:38;;;;;;;17.07;7.83;;;6.70;21.40;;;;;;5055547;28;20595;-69
2023/12/16 04:25:10;;;;;;;16.93;7.37;;;6.80;70.90;;;;;;5054159;28;20171;-69
2023/12/16 04:27:37;;;;;;;11.17;7.63;;;6.70;28.30;;;;;;5055921;28;20163;-69
2023/12/16 04:30:03;;;;;;;15.97;7.40;;;6.80;20.60;;;;;;5053988;28;20269;-68
2023/12/16 04:32:29;;;;;;;23.30;8.20;;;6.80;16.60;;;;;;5055279;28;20203;-69
2023/12/16 04:34:55;;;;;;;20.77;7.97;;;6.80;4.40;;;;;;5055095;28;20173;-69
2023/12/16 04:37:21;;;;;;;13.30;7.63;;;6.80;2.30;;;;;;5053948;28;20170;-69
2023/12/16 04:39:47;;;;;;;14.90;7.00;;;6.80;1.00;;;;;;5055122;28;20187;-69
2023/12/16 04:42:12;;;;;;;16.87;7.07;;;6.80;4.80;;;;;;5055324;28;20179;-69
2023/12/16 04:44:38;;;;;;;17.10;7.30;;;6.80;17.60;;;;;;5055111;28;20196;-69
2023/12/16 04:47:04;;;;;;;12.27;6.40;;;6.80;13.10;;;;;;5055078;28;20171;-69
2023/12/16 04:49:30;;;;;;;13.63;6.97;;;6.80;1.00;;;;;;5055035;28;20214;-69
2023/12/16 04:51:56;;;;;;;12.63;7.00;;;6.80;1.00;;;;;;5054779;28;20260;-69
2023/12/16 04:54:21;;;;;;;10.80;7.07;;;6.80;1.00;;;;;;5055126;28;20159;-69
2023/12/16 04:56:47;;;;;;;13.77;6.77;;;6.80;1.00;;;;;;5055255;28;20575;-69
2023/12/16 04:59:14;;;;;;;16.03;7.40;;;6.80;13.80;;;;;;5054446;28;20198;-69
2023/12/16 05:01:40;;;;;;;13.43;6.90;;;6.80;1.00;;;;;;5053520;28;20635;-69
2023/12/16 05:04:06;;;;;;;12.37;7.03;;;6.80;1.00;;;;;;5054434;28;20182;-69
2023/12/16 05:06:31;;;;;;;13.63;6.93;;;6.80;1.00;;;;;;5054363;28;20648;-69
2023/12/16 05:08:57;;;;;;;14.43;7.17;;;6.80;1.00;;;;;;5053351;28;20190;-69
2023/12/16 05:11:23;;;;;;;16.07;7.27;;;6.70;1.00;;;;;;5054190;28;20185;-69
2023/12/16 05:13:49;;;;;;;14.80;6.80;;;6.70;1.00;;;;;;5053778;28;20660;-69
2023/12/16 05:16:19;;;;;;;21.40;7.93;;;6.80;1.00;;;;;;5052816;28;20189;-69
2023/12/16 05:18:45;;;;;;;17.37;6.97;;;6.70;1.00;;;;;;5054026;28;20621;-69
2023/12/16 05:21:11;;;;;;;14.20;6.80;;;6.70;1.00;;;;;;5054095;28;20178;-69
2023/12/16 05:23:38;;;;;;;17.87;7.23;;;6.80;1.00;;;;;;5054005;28;20183;-69
2023/12/16 05:26:04;;;;;;;16.83;7.20;;;6.80;1.00;;;;;;5054047;28;20253;-69
2023/12/16 05:28:32;;;;;;;15.77;7.23;;;6.80;1.00;;;;;;5053569;28;20194;-69
2023/12/16 05:30:58;;;;;;;13.73;6.80;;;6.70;1.00;;;;;;5052573;28;20182;-69
2023/12/16 05:33:23;;;;;;;13.33;6.90;;;6.70;1.00;;;;;;5052564;28;20272;-69
2023/12/16 05:35:49;;;;;;;13.43;7.10;;;6.70;1.00;;;;;;5054536;28;20174;-69
2023/12/16 05:38:15;;;;;;;10.50;7.10;;;6.70;1.00;;;;;;5054099;28;20177;-69
2023/12/16 05:40:41;;;;;;;14.83;7.50;;;6.70;1.00;;;;;;5053514;28;20179;-70
2023/12/16 05:43:08;;;;;;;12.37;6.90;;;6.70;1.00;;;;;;5053927;28;20219;-69
2023/12/16 05:45:33;;;;;;;17.03;7.23;;;6.70;1.00;;;;;;5053434;28;20225;-69
2023/12/16 05:48:00;;;;;;;15.23;8.00;;;6.70;1.00;;;;;;5053554;28;20576;-69
2023/12/16 05:50:25;;;;;;;15.63;7.33;;;6.70;1.00;;;;;;5052378;28;20206;-69
2023/12/16 05:52:51;;;;;;;23.20;7.80;;;6.70;1.00;;;;;;5053495;28;20321;-69
2023/12/16 05:55:17;;;;;;;15.33;7.43;;;6.70;1.00;;;;;;5053548;28;20178;-69
2023/12/16 05:57:43;;;;;;;18.13;8.20;;;6.70;1.00;;;;;;5053525;28;20181;-69
2023/12/16 06:00:09;;;;;;;13.57;7.10;;;6.70;1.00;;;;;;5053166;28;20222;-69
2023/12/16 06:02:35;;;;;;;10.50;7.00;;;6.70;1.00;;;;;;5053501;28;20266;-69
2023/12/16 06:05:01;;;;;;;15.73;7.67;;;6.70;1.00;;;;;;5052270;28;20240;-69
2023/12/16 06:07:27;;;;;;;13.03;7.47;;;6.70;1.00;;;;;;5053414;28;20181;-69
2023/12/16 06:09:53;;;;;;;17.20;7.23;;;6.70;1.00;;;;;;5053329;28;20194;-69
2023/12/16 06:12:22;;;;;;;15.63;7.93;;;6.70;1.00;;;;;;5053267;28;20206;-69
2023/12/16 06:14:48;;;;;;;15.63;7.87;;;6.60;1.00;;;;;;5053064;28;20561;-69
2023/12/16 06:17:13;;;;;;;12.70;7.50;;;6.60;1.00;;;;;;5051924;28;20170;-69
2023/12/16 06:19:39;;;;;;;13.33;7.77;;;6.70;1.00;;;;;;5051865;28;20194;-69
2023/12/16 06:22:05;;;;;;;13.20;8.20;;;6.70;1.00;;;;;;5053214;28;20262;-69
2023/12/16 06:24:31;;;;;;;15.90;7.40;;;6.70;1.00;;;;;;5053460;28;20183;-69
2023/12/16 06:26:56;;;;;;;19.03;7.87;;;6.70;1.00;;;;;;5053051;28;20636;-69
2023/12/16 06:29:22;;;;;;;14.53;7.50;;;6.70;1.00;;;;;;5052843;28;20218;-69
2023/12/16 06:31:48;;;;;;;13.67;7.53;;;6.70;1.00;;;;;;5053222;28;20213;-69
2023/12/16 06:34:16;;;;;;;10.83;7.50;;;6.70;1.00;;;;;;5053026;28;20173;-69
2023/12/16 06:36:42;;;;;;;17.17;7.80;;;6.70;1.00;;;;;;5053011;28;20197;-69
2023/12/16 06:39:08;;;;;;;16.37;7.80;;;6.70;1.00;;;;;;5053164;28;20225;-69
2023/12/16 06:41:34;;;;;;;18.37;7.47;;;6.70;1.00;;;;;;5053092;28;20263;-69
2023/12/16 06:44:00;;;;;;;16.13;8.20;;;6.80;1.00;;;;;;5051300;28;20190;-69
2023/12/16 06:46:26;;;;;;;14.30;7.13;;;6.80;1.00;;;;;;5052869;28;20170;-69
2023/12/16 06:48:51;;;;;;;12.57;7.50;;;6.80;1.00;;;;;;5051428;28;20220;-69
2023/12/16 06:51:17;;;;;;;16.83;7.80;;;6.80;1.00;;;;;;5052871;28;20171;-69
2023/12/16 06:53:43;;;;;;;13.67;7.83;;;6.90;1.00;;;;;;5056389;28;20209;-68
2023/12/16 06:56:09;;;;;;;14.93;7.63;;;6.90;1.00;;;;;;5057261;28;20186;-69
2023/12/16 06:58:35;;;;;;;15.40;6.90;;;6.90;1.00;;;;;;5056433;28;20222;-69
2023/12/16 07:01:01;;;;;;;11.70;7.73;;;6.90;1.00;;;;;;5055514;28;20206;-70
2023/12/16 07:03:28;;;;;;;16.03;7.17;;;7.00;1.00;;;;;;5056708;28;20185;-69
2023/12/16 07:05:55;;;;;;;19.30;8.40;;;7.00;1.00;;;;;;5057089;28;20170;-70
2023/12/16 07:08:20;;;;;;;22.10;8.53;;;7.00;1.00;;;;;;5056718;28;20581;-71
2023/12/16 07:10:46;;;;;;;13.27;7.83;;;7.00;1.00;;;;;;5056535;28;20178;-71
2023/12/16 07:13:12;;;;;;;14.87;7.17;;;7.00;1.00;;;;;;5056497;28;20273;-70
2023/12/16 07:15:38;;;;;;;13.03;7.57;;;6.90;1.00;;;;;;5056176;28;20187;-70
2023/12/16 07:18:04;;;;;;;11.13;7.23;;;7.00;1.00;;;;;;5056640;28;20201;-70
2023/12/16 07:20:30;;;;;;;12.87;6.90;;;6.90;1.00;;;;;;5056341;28;20163;-71
2023/12/16 07:22:56;;;;;;;15.40;7.03;;;6.90;1.00;;;;;;5055120;28;20197;-70
2023/12/16 07:25:22;;;;;;;24.33;8.17;;;6.90;1.00;;;;;;5056631;28;20616;-70
2023/12/16 07:27:48;;;;;;;16.97;7.47;;;6.90;1.00;;;;;;5057044;28;20174;-69
2023/12/16 07:30:16;;;;;;;20.37;7.70;;;6.90;1.00;;;;;;5056183;28;20205;-70
2023/12/16 07:32:42;;;;;;;14.37;7.30;;;6.80;1.00;;;;;;5056733;28;20195;-69
2023/12/16 07:35:13;;;;;;;11.90;7.43;;;6.90;1.00;;;;;;5056360;28;20155;-70
2023/12/16 07:37:43;;;;;;;19.20;7.17;;;6.90;1.00;;;;;;5054902;28;20174;-70
2023/12/16 07:40:09;;;;;;;12.63;7.10;;;6.90;1.00;;;;;;5057089;28;20551;-70
2023/12/16 07:42:39;;;;;;;13.73;7.40;;;6.90;1.00;;;;;;5056074;28;20197;-69
2023/12/16 07:45:06;;;;;;;11.07;6.80;;;6.80;1.00;;;;;;5055990;28;20632;-70
2023/12/16 07:47:33;;;;;;;15.70;7.47;;;6.90;1.00;;;;;;5056320;28;20177;-71
2023/12/16 07:49:59;;;;;;;18.27;7.63;;;6.90;1.00;;;;;;5055879;28;20218;-70
2023/12/16 07:52:25;;;;;;;14.53;7.30;;;6.90;1.00;;;;;;5056331;28;20281;-71
2023/12/16 07:54:51;;;;;;;19.13;7.47;;;6.90;1.00;;;;;;5056484;28;20707;-71
2023/12/16 07:57:17;;;;;;;15.20;7.70;;;7.00;1.00;;;;;;5055989;28;20250;-70
2023/12/16 07:59:43;;;;;;;12.37;7.27;;;7.00;1.00;;;;;;5055576;28;20190;-71
2023/12/16 08:02:10;;;;;;;15.90;7.53;;;7.00;1.00;;;;;;5055625;28;20186;-71
2023/12/16 08:04:39;;;;;;;21.90;7.73;;;7.00;1.00;;;;;;5054874;28;20193;-71
2023/12/16 08:07:05;;;;;;;23.70;7.90;;;7.00;1.00;;;;;;5055689;28;20256;-70
2023/12/16 08:09:31;;;;;;;19.63;7.77;;;7.00;1.00;;;;;;5055461;28;20216;-70
2023/12/16 08:12:00;;;;;;;14.97;8.23;;;7.00;1.00;;;;;;5054160;28;20633;-71
2023/12/16 08:14:26;;;;;;;19.57;7.83;;;7.00;1.00;;;;;;5055427;28;20174;-71
2023/12/16 08:16:51;;;;;;;19.43;7.80;;;7.10;1.00;;;;;;5054044;28;20170;-71
2023/12/16 08:19:17;;;;;;;12.83;7.40;;;7.10;1.00;;;;;;5055529;28;20737;-70
2023/12/16 08:21:43;;;;;;;20.90;7.50;;;7.00;1.00;;;;;;5055320;28;20228;-71
2023/12/16 08:24:09;;;;;;;12.33;6.93;;;7.10;1.00;;;;;;5054034;28;20179;-69
2023/12/16 08:26:34;;;;;;;15.33;7.30;;;7.10;5.50;;;;;;5055524;28;20182;-71
2023/12/16 08:29:00;;;;;;;12.07;7.27;;;7.00;1.00;;;;;;5053798;28;20202;-70
2023/12/16 08:31:26;;;;;;;16.70;7.83;;;7.00;1.00;;;;;;5055280;28;20253;-70
2023/12/16 08:33:52;;;;;;;17.23;7.47;;;7.10;1.00;;;;;;5055838;28;20254;-70
2023/12/16 08:36:17;;;;;;;21.43;7.30;;;7.10;1.00;;;;;;5055356;28;20241;-70
2023/12/16 08:38:44;;;;;;;16.77;7.60;;;7.00;1.00;;;;;;5055375;28;20607;-71
2023/12/16 08:41:12;;;;;;;17.73;8.10;;;7.10;1.00;;;;;;5055283;28;20166;-71
2023/12/16 08:43:38;;;;;;;15.50;7.93;;;7.10;1.00;;;;;;5055011;28;20158;-71
2023/12/16 08:46:05;;;;;;;17.30;7.50;;;7.10;1.00;;;;;;5055001;28;20241;-70
2023/12/16 08:48:31;;;;;;;12.73;7.30;;;7.10;1.00;;;;;;5055171;28;20639;-71
2023/12/16 08:50:57;;;;;;;14.90;7.40;;;7.10;1.00;;;;;;5056415;28;20206;-70
2023/12/16 08:53:24;;;;;;;17.80;7.10;;;7.10;1.00;;;;;;5056001;28;20232;-69
2023/12/16 08:55:50;;;;;;;21.83;7.97;;;7.10;1.00;;;;;;5055566;28;20165;-70
2023/12/16 08:58:17;;;;;;;18.90;7.77;;;7.10;1.00;;;;;;5055152;28;20196;-70
2023/12/16 09:00:43;;;;;;;17.17;7.60;;;7.10;1.00;;;;;;5054323;28;20174;-70
2023/12/16 09:03:09;;;;;;;20.13;8.27;;;7.10;1.00;;;;;;5054829;28;20175;-69
2023/12/16 09:05:36;;;;;;;17.10;7.70;;;7.10;1.00;;;;;;5054305;28;20589;-70
2023/12/16 09:08:02;;;;;;;13.57;7.50;;;7.10;1.00;;;;;;5054474;28;20628;-70
2023/12/16 09:10:28;;;;;;;15.93;6.97;;;7.20;1.00;;;;;;5054375;28;20201;-70
2023/12/16 09:12:54;;;;;;;12.30;7.37;;;7.20;1.00;;;;;;5052937;28;20621;-69
2023/12/16 09:15:20;;;;;;;11.03;7.00;;;7.30;1.00;;;;;;5053467;28;20182;-70
2023/12/16 09:17:47;;;;;;;15.90;7.30;;;7.30;1.00;;;;;;5052900;28;20614;-70
2023/12/16 09:20:14;;;;;;;17.43;7.43;;;7.40;1.00;;;;;;5054171;28;20537;-70
2023/12/16 09:22:40;;;;;;;16.97;6.90;;;7.40;1.00;;;;;;5054408;28;20178;-70
2023/12/16 09:25:08;;;;;;;15.07;7.13;;;7.50;1.00;;;;;;5054202;28;20178;-70
2023/12/16 09:27:34;;;;;;;15.70;8.30;;;7.60;1.00;;;;;;5052955;28;20187;-68
2023/12/16 09:30:00;;;;;;;10.17;6.63;;;7.60;1.00;;;;;;5054581;28;20229;-70
2023/12/16 09:32:25;;;;;;;16.47;7.07;;;7.70;1.00;;;;;;5053669;28;20202;-70
2023/12/16 09:34:51;;;;;;;11.93;7.00;;;7.70;1.00;;;;;;5054012;28;20197;-70
2023/12/16 09:37:17;;;;;;;13.47;6.50;;;7.80;1.00;;;;;;5054020;28;20173;-72
2023/12/16 09:39:43;;;;;;;14.33;6.63;;;7.80;1.00;;;;;;5052433;28;20198;-71
2023/12/16 09:42:11;;;;;;;18.27;6.67;;;7.90;1.00;;;;;;5053737;28;20261;-72
2023/12/16 09:44:37;;;;;;;13.83;7.23;;;7.90;1.00;;;;;;5053435;28;20201;-70
2023/12/16 09:47:08;;;;;;;17.93;6.93;;;7.90;1.00;;;;;;5053685;28;20651;-71
2023/12/16 09:49:36;;;;;;;15.07;7.57;;;7.90;1.00;;;;;;5053430;28;20323;-72
2023/12/16 09:52:02;;;;;;;18.33;7.17;;;8.00;1.00;;;;;;5054377;28;20248;-72
2023/12/16 09:54:27;;;;;;;14.43;6.47;;;8.00;1.00;;;;;;5053654;28;20175;-72
2023/12/16 09:56:56;;;;;;;13.93;6.13;;;8.00;1.00;;;;;;5052982;28;20203;-72
2023/12/16 09:59:25;;;;;;;18.80;7.57;;;8.00;1.00;;;;;;5053590;28;20205;-72
2023/12/16 10:01:53;;;;;;;12.73;7.60;;;8.10;1.00;;;;;;5053485;28;20182;-72
2023/12/16 10:04:22;;;;;;;19.33;6.93;;;8.10;1.00;;;;;;5053800;28;20178;-71
2023/12/16 10:06:48;;;;;;;18.57;7.20;;;8.10;1.00;;;;;;5052684;28;20182;-71
2023/12/16 10:09:14;;;;;;;15.37;6.23;;;8.10;1.00;;;;;;5053667;28;20232;-71
2023/12/16 10:11:40;;;;;;;10.77;6.67;;;8.10;1.00;;;;;;5053368;28;20210;-68
2023/12/16 10:14:06;;;;;;;13.13;6.30;;;8.20;1.00;;;;;;5052945;28;20183;-70
2023/12/16 10:16:32;;;;;;;15.47;7.30;;;8.20;1.00;;;;;;5052100;28;20175;-71
2023/12/16 10:18:58;;;;;;;12.57;6.10;;;8.30;1.00;;;;;;5053267;28;20201;-71
2023/12/16 10:21:31;;;;;;;18.00;7.10;;;8.30;1.00;;;;;;5052844;28;20178;-71
2023/12/16 10:23:58;;;;;;;11.63;5.70;;;8.40;1.00;;;;;;5053723;28;20248;-72
2023/12/16 10:26:24;;;;;;;11.87;6.03;;;8.50;1.00;;;;;;5052645;28;20529;-71
2023/12/16 10:28:52;;;;;;;12.27;6.30;;;8.50;1.00;;;;;;5051912;28;20198;-70
2023/12/16 10:31:21;;;;;;;16.67;6.70;;;8.50;1.00;;;;;;5052734;28;20633;-72
2023/12/16 10:33:48;;;;;;;14.83;6.50;;;8.60;1.00;;;;;;5051714;28;20217;-72
2023/12/16 10:36:14;;;;;;;13.33;5.93;;;8.60;1.00;;;;;;5052895;28;20167;-72
2023/12/16 10:38:40;;;;;;;14.43;6.27;;;8.60;1.00;;;;;;5053102;28;20198;-72
2023/12/16 10:41:07;;;;;;;22.83;6.13;;;8.60;1.00;;;;;;5051663;28;20174;-71
2023/12/16 10:43:33;;;;;;;20.67;6.37;;;8.60;1.00;;;;;;5052902;28;20197;-72
2023/12/16 10:46:04;;;;;;;20.02;6.82;;;8.70;1.00;;;;;;5051385;28;20712;-72
2023/12/16 10:48:33;;;;;;;11.57;6.00;;;8.80;1.00;;;;;;5052825;28;20214;-69
2023/12/16 10:51:05;;;;;;;19.23;6.33;;;8.80;1.00;;;;;;5052961;28;20221;-71
2023/12/16 10:53:39;;;;;;;17.00;6.83;;;8.80;1.00;;;;;;5053150;28;20630;-69
2023/12/16 10:56:15;;;;;;;13.70;6.27;;;8.70;1.00;;;;;;5053427;28;20171;-72
2023/12/16 10:58:49;;;;;;;13.40;6.27;;;8.80;1.00;;;;;;5051855;28;20606;-72
2023/12/16 11:01:21;;;;;;;17.23;5.70;;;8.80;1.00;;;;;;5052571;28;20185;-71
2023/12/16 11:03:52;;;;;;;15.13;6.13;;;8.80;1.00;;;;;;5053096;28;20167;-71
2023/12/16 11:06:35;;;;;;;13.93;6.20;;;8.90;1.00;;;;;;5053091;28;20616;-72
2023/12/16 11:09:03;;;;;;;16.33;5.70;;;8.90;1.00;;;;;;5052707;28;20702;-71
2023/12/16 11:11:30;;;;;;;19.65;6.50;;;9.00;1.00;;;;;;5052888;28;20174;-70
2023/12/16 11:13:57;;;;;;;17.57;6.03;;;9.00;1.00;;;;;;5052790;28;20652;-71
2023/12/16 11:17:05;;;;;;;20.95;6.63;;;9.00;1.00;;;;;;5051011;28;20171;-69
2023/12/16 11:19:42;;;;;;;13.20;6.30;;;8.90;1.00;;;;;;5052867;28;20206;-72
2023/12/16 11:22:10;;;;;;;13.60;6.40;;;8.90;1.00;;;;;;5051254;28;20170;-72
2023/12/16 11:24:43;;;;;;;19.83;6.27;;;8.90;1.00;;;;;;5051264;28;20632;-71
2023/12/16 11:27:09;;;;;;;14.95;5.95;;;8.90;1.00;;;;;;5053228;28;20163;-71
2023/12/16 11:29:35;;;;;;;16.95;6.35;;;8.90;1.30;;;;;;5052432;28;20558;-70
2023/12/16 11:32:03;;;;;;;19.90;7.00;;;8.90;8.50;;;;;;5052683;28;20202;-71
2023/12/16 11:34:52;;;;;;;14.17;6.10;;;9.00;9.20;;;;;;5052462;28;20155;-69
2023/12/16 11:37:36;;;;;;;13.77;6.33;;;9.00;46.80;;;;;;5052425;28;20155;-70
2023/12/16 11:40:07;;;;;;;14.13;6.15;;;9.10;1.00;;;;;;5055864;28;20265;-71
2023/12/16 11:42:55;;;;;;;16.47;6.73;;;9.10;1.00;;;;;;5056022;28;20247;-70
2023/12/16 11:45:42;;;;;;;16.37;6.17;;;9.10;1.00;;;;;;5055518;28;20232;-71
2023/12/16 11:48:14;;;;;;;17.70;5.67;;;9.10;1.00;;;;;;5055710;28;20269;-69
2023/12/16 11:50:42;;;;;;;16.97;6.20;;;9.00;1.00;;;;;;5056081;28;20604;-67
2023/12/16 11:53:12;;;;;;;17.27;6.60;;;9.00;1.00;;;;;;5055623;28;20194;-70
2023/12/16 11:55:38;;;;;;;17.67;6.70;;;9.00;1.00;;;;;;5055900;28;20167;-71
2023/12/16 11:58:04;;;;;;;15.40;6.88;;;9.00;1.00;;;;;;5055679;28;20157;-70
2023/12/16 12:00:30;;;;;;;14.35;6.10;;;9.00;1.00;;;;;;5055292;28;20269;-67
2023/12/16 12:02:59;;;;;;;17.40;6.50;;;9.00;1.00;;;;;;5054257;28;20723;-70
2023/12/16 12:05:26;;;;;;;19.73;6.90;;;9.00;1.00;;;;;;5054206;28;20619;-70
2023/12/16 12:07:52;;;;;;;24.23;6.90;;;9.00;1.20;;;;;;5054716;28;20179;-69
2023/12/16 12:10:18;;;;;;;15.80;6.23;;;8.90;1.00;;;;;;5055661;28;20539;-68
2023/12/16 12:12:44;;;;;;;14.82;5.88;;;8.90;18.70;;;;;;5054058;28;20194;-72
2023/12/16 12:15:10;;;;;;;18.10;6.57;;;8.90;1.00;;;;;;5053659;28;20186;-70
2023/12/16 12:17:36;;;;;;;17.40;6.63;;;8.90;1.00;;;;;;5057949;28;20162;-70
2023/12/16 12:20:04;;;;;;;13.00;6.53;;;8.90;20.10;;;;;;5054291;28;20198;-70
2023/12/16 12:22:31;;;;;;;14.60;5.90;;;8.90;35.40;;;;;;5055161;28;20213;-69
2023/12/16 12:24:57;;;;;;;14.97;6.23;;;8.90;65.70;;;;;;5067414;28;20178;-71
2023/12/16 12:27:23;;;;;;;20.47;7.03;;;8.90;19.50;;;;;;5074977;28;20639;-69
2023/12/16 12:29:59;;;;;;;20.40;6.20;;;8.90;35.50;;;;;;5074591;28;20707;-69
2023/12/16 12:32:27;;;;;;;18.30;6.73;;;8.90;29.70;;;;;;5074040;28;20201;-68
2023/12/16 12:35:04;;;;;;;16.27;6.67;;;8.90;59.10;;;;;;5074789;28;20154;-71
2023/12/16 12:37:41;;;;;;;18.97;7.00;;;8.90;61.00;;;;;;5074891;28;20181;-70
2023/12/16 12:40:13;;;;;;;16.53;7.33;;;9.00;42.20;;;;;;5073386;28;20327;-70
2023/12/16 12:42:50;;;;;;;25.63;7.30;;;8.90;99.70;;;;;;5075038;28;20582;-70
2023/12/16 12:45:43;;;;;;;18.77;7.03;;;8.90;99.90;;;;;;5057717;28;20659;-71
2023/12/16 12:48:16;;;;;;;22.23;7.40;;;8.80;99.90;;;;;;5054281;28;20202;-71
2023/12/16 12:50:45;;;;;;;16.23;6.40;;;8.90;99.90;;;;;;5054379;28;20670;-69
2023/12/16 12:53:18;;;;;;;23.87;6.90;;;8.90;99.90;;;;;;5054734;28;20194;-69